Aeroporto :
LOGIN :

Iscrizione | Disclaimer

   EN    FR    IT 

 










Sommario :    VFR   VFR Marginale   IFR   IFR Intensivo   IFR Molto Intensivo
Visibilità : 
Base nubi : 
>= 8 km
>= 3000ft
5 / 8 km
1000 / 3000 ft
1500m / 5 km
500 / 1000 ft
800 / 1500m
200 / 500 ft
< 800m
< 200 ft
Simboli :   Temporali  Nebbia  Neve Forte  Precipitazioni Forti  Vento > 20 kt
SIGMETs :   Varie  Temporali  Ghiacco  Turbolenza  Onda orograficha  Ceneri Vulcaniche






- Altitudine del aeroporto : 74 ft
- Codice IATA : EIN


EHEH - Eindhoven

ULTIMO METAR :
  • 120525Z AUTO 20012KT 9999 BKN013 OVC015 05/03 Q1000 GRN 20010KT 9999 BKN014 BKN016

METARs OBSOLETI :
  • 120508Z AUTO 20011KT 170V230 9999 FEW012 BKN014 BKN190 04/03 Q1000 GRN
  • 120455Z AUTO 20011KT 9999 SCT012 BKN014 BKN065 04/03 Q1000 GRN
  • 120437Z AUTO 20013KT 9999 FEW013 04/03 Q1001 BLU
  • 120425Z AUTO 20013KT 9999 FEW013 BKN140 04/03 Q1001 BLU
  • 120355Z AUTO 20011KT 170V230 9999 FEW013 OVC160 04/03 Q1001 BLU
  • 120325Z AUTO 20010KT 9999 NCD 04/03 Q1001 BLU
  • 120255Z AUTO 19009KT 9999 OVC170 04/03 Q1001 BLU

TAF TAF EHEH
Valido dal 12 a 06 ore il 13 a 12 ore UTC


120520Z 1206/1312 21010KT 9999 BKN014
PROB30
TEMPO 1206/1212 4500 SHRA SCT006 SCT016CB BKN020
PROB40
TEMPO 1206/1210 BKN007
BECMG 1211/1214 BKN018
BECMG 1216/1218 FEW018
BECMG 1222/1301 SCT015 BKN020
TEMPO 1300/1307 4500 RA SCT008 BKN012
PROB40
TEMPO 1307/1312 4500 SHRA FEW012 SCT016CB BKN030



MetMap, La meteo Aeronautica in un colpo d'occhio ! - Copyright ORBIFLY Dicembre 2007 - Disclaimer

ORBIFLY MET'MAP TEAM :

Programmazione e sviluppo : Alexandra Zaïnal
Concezione e sviluppo : Baudouin d'Aumeries
Co-Programmazione e sviluppo : Marc-Olivier Méhu
Supporto tecnico e logistico : Manuel Goepfert
Aiuto per la traduzione : Arnaldo La Scala

Contatto : metmap@orbifly.com




FONTI E CREDITI :

   NOAA